Time;durP1;ratioP1;P1;durP2;ratioP2;P2;SDS_P1;SDS_P2;PMS_P1;PMS_P2;Temp;Humidity;BMP_temperature;BMP_pressure;BME280_temperature;BME280_humidity;BME280_pressure;Samples;Min_cycle;Max_cycle;Signal;HPM_P1;HPM_P2
2021/08/12 09:53:17;;;;;;;7.87;4.57;;;30.60;85.90;;;;;;5062061;28;20905;-75
2021/08/12 09:55:44;;;;;;;11.13;4.63;;;30.70;81.80;;;;;;5071046;28;20442;-75
2021/08/12 09:58:11;;;;;;;6.07;5.30;;;30.80;80.60;;;;;;5073163;28;20433;-75
2021/08/12 10:00:42;;;;;;;6.40;4.63;;;30.90;80.50;;;;;;5071042;28;20457;-75
2021/08/12 10:03:30;;;;;;;5.80;5.20;;;30.90;82.30;;;;;;5090282;28;20531;-75
2021/08/12 10:06:00;;;;;;;6.10;4.87;;;31.00;82.10;;;;;;5054419;28;20429;-74
2021/08/12 10:08:41;;;;;;;5.40;4.90;;;31.10;80.70;;;;;;5071814;28;20417;-74
2021/08/12 10:11:25;;;;;;;5.83;5.00;;;30.90;79.00;;;;;;5066072;28;20437;-74
2021/08/12 10:13:54;;;;;;;6.50;4.70;;;30.80;82.10;;;;;;5070371;28;20465;-74
2021/08/12 10:16:20;;;;;;;4.43;4.00;;;30.70;84.10;;;;;;5070644;28;20424;-74
2021/08/12 10:18:47;;;;;;;7.13;3.80;;;30.70;82.10;;;;;;5079998;28;20420;-75
2021/08/12 10:21:16;;;;;;;8.80;5.40;;;30.50;82.20;;;;;;5073377;28;20453;-75
2021/08/12 10:23:44;;;;;;;4.17;3.40;;;30.30;82.90;;;;;;5078991;28;20440;-74
2021/08/12 10:26:10;;;;;;;6.50;3.60;;;29.90;79.70;;;;;;5085726;28;20436;-74
2021/08/12 10:28:39;;;;;;;5.50;4.70;;;29.60;84.80;;;;;;5089183;28;21020;-74
2021/08/12 10:31:06;;;;;;;5.30;4.80;;;29.30;84.40;;;;;;5077820;28;20435;-74
2021/08/12 10:33:35;;;;;;;4.63;4.10;;;29.00;87.10;;;;;;5075251;28;21026;-74
2021/08/12 10:36:01;;;;;;;5.23;4.57;;;28.80;85.20;;;;;;5081361;28;20479;-74
2021/08/12 10:38:27;;;;;;;5.97;4.40;;;28.50;85.90;;;;;;5078703;28;20437;-74
2021/08/12 10:40:54;;;;;;;4.70;4.20;;;28.20;84.80;;;;;;5076745;28;20741;-74
2021/08/12 10:43:23;;;;;;;3.80;3.33;;;27.90;83.90;;;;;;5077327;28;20163;-74
2021/08/12 10:46:04;;;;;;;7.27;4.43;;;27.80;85.10;;;;;;5072269;28;20434;-74
2021/08/12 10:48:32;;;;;;;10.87;7.43;;;27.70;90.00;;;;;;5074887;28;20436;-74
2021/08/12 10:51:13;;;;;;;7.00;4.67;;;27.60;90.80;;;;;;5070329;28;20436;-74
2021/08/12 10:53:42;;;;;;;4.70;3.80;;;27.50;91.70;;;;;;5083331;28;20841;-74
2021/08/12 10:56:10;;;;;;;4.97;4.00;;;27.40;92.30;;;;;;5079154;28;20896;-74
2021/08/12 10:58:37;;;;;;;4.73;3.77;;;27.40;92.10;;;;;;5076437;28;20412;-74
2021/08/12 11:01:07;;;;;;;7.53;4.83;;;27.30;91.50;;;;;;5086810;28;20427;-74
2021/08/12 11:14:14;;;;;;;7.70;5.80;;;27.30;91.30;;;;;;5091268;27;20651;-73
2021/08/12 11:22:26;;;;;;;4.20;3.70;;;27.30;92.10;;;;;;5057955;28;20661;-74
2021/08/12 11:24:52;;;;;;;3.43;3.13;;;27.40;82.70;;;;;;5066146;28;20406;-73
2021/08/12 11:27:33;;;;;;;6.13;3.80;;;27.50;79.40;;;;;;5057098;28;20417;-73
2021/08/12 11:30:39;;;;;;;3.53;3.17;;;27.50;81.40;;;;;;5066418;28;20175;-74
2021/08/12 11:33:25;;;;;;;4.80;3.80;;;27.50;85.50;;;;;;5066332;28;20516;-74
2021/08/12 11:36:08;;;;;;;3.23;2.90;;;27.50;88.10;;;;;;5068546;28;20467;-74
2021/08/12 11:38:34;;;;;;;4.67;3.70;;;27.50;83.30;;;;;;5053468;28;21001;-74
2021/08/12 11:41:00;;;;;;;3.73;3.27;;;27.50;86.50;;;;;;5061481;28;20893;-73
2021/08/12 11:43:27;;;;;;;7.00;3.70;;;27.50;88.30;;;;;;5055772;28;20406;-73
2021/08/12 11:45:55;;;;;;;4.10;3.37;;;27.50;88.40;;;;;;5055587;28;20810;-74
2021/08/12 11:48:21;;;;;;;3.83;3.47;;;27.50;85.40;;;;;;5057999;28;20983;-74
2021/08/12 11:50:47;;;;;;;6.90;5.00;;;27.40;81.30;;;;;;5069464;28;20406;-73
2021/08/12 11:53:15;;;;;;;6.00;4.80;;;27.30;83.40;;;;;;5064354;28;20426;-73
2021/08/12 11:55:41;;;;;;;5.70;4.43;;;27.30;87.50;;;;;;5054732;28;20178;-73
2021/08/12 11:58:07;;;;;;;4.13;3.67;;;27.30;90.30;;;;;;5061926;28;20434;-74
2021/08/12 12:00:34;;;;;;;4.43;3.70;;;27.20;88.20;;;;;;5054790;28;20461;-75
2021/08/12 12:03:04;;;;;;;8.03;3.57;;;27.10;90.30;;;;;;5052877;28;20191;-74
2021/08/12 12:05:33;;;;;;;7.50;4.57;;;27.00;90.10;;;;;;5052959;28;20969;-74
2021/08/12 12:08:09;;;;;;;4.53;3.60;;;26.90;83.30;;;;;;5053502;28;20931;-74
2021/08/12 12:13:20;;;;;;;4.23;3.10;;;26.80;81.60;;;;;;5060560;28;20539;-74
2021/08/12 12:15:50;;;;;;;4.03;3.10;;;26.60;75.20;;;;;;5057581;28;20790;-74
2021/08/12 12:18:30;;;;;;;4.00;3.53;;;26.50;76.20;;;;;;5058342;28;20843;-74
2021/08/12 12:21:02;;;;;;;2.80;2.47;;;26.50;85.30;;;;;;5055808;28;20460;-74
2021/08/12 12:23:28;;;;;;;7.70;4.63;;;26.50;80.70;;;;;;5056946;28;20465;-74
2021/08/12 12:25:54;;;;;;;3.17;2.90;;;26.60;82.80;;;;;;5058224;28;20462;-74
2021/08/12 12:28:20;;;;;;;2.80;2.47;;;26.60;85.90;;;;;;5055775;28;20204;-74
2021/08/12 12:30:46;;;;;;;7.77;3.63;;;26.70;84.60;;;;;;5056123;28;20167;-74
2021/08/12 12:33:14;;;;;;;6.47;4.50;;;26.70;86.10;;;;;;5058602;28;20742;-72
2021/08/12 12:35:43;;;;;;;3.80;3.30;;;26.70;89.50;;;;;;5058310;28;20498;-72
2021/08/12 12:38:13;;;;;;;3.93;3.10;;;26.70;83.40;;;;;;5054235;28;20428;-72
2021/08/12 12:40:39;;;;;;;4.37;3.97;;;26.60;82.60;;;;;;5064095;28;20480;-72
2021/08/12 12:43:06;;;;;;;4.40;3.40;;;26.50;84.00;;;;;;5061127;28;20631;-72
2021/08/12 12:45:53;;;;;;;4.67;3.20;;;26.50;82.90;;;;;;5053428;28;20430;-74
2021/08/12 12:51:10;;;;;;;5.43;3.67;;;26.60;87.10;;;;;;5052694;28;20541;-74
2021/08/12 12:56:20;;;;;;;4.50;3.53;;;26.60;84.10;;;;;;5055427;28;21085;-73
2021/08/12 12:58:46;;;;;;;5.93;4.00;;;26.60;87.60;;;;;;5045643;28;20447;-73
2021/08/12 13:01:20;;;;;;;8.47;5.80;;;26.60;91.00;;;;;;5046674;28;20430;-73
2021/08/12 13:03:56;;;;;;;6.27;5.03;;;26.50;91.00;;;;;;5043673;28;20423;-73
2021/08/12 13:06:42;;;;;;;5.10;4.60;;;26.40;91.30;;;;;;5038267;28;20419;-73
2021/08/12 13:09:29;;;;;;;5.10;3.90;;;26.40;92.60;;;;;;5036944;28;20414;-73
2021/08/12 13:11:54;;;;;;;6.20;4.07;;;26.30;92.00;;;;;;5043168;28;20462;-73
2021/08/12 13:14:20;;;;;;;5.20;4.67;;;26.20;86.10;;;;;;5041853;28;20513;-73
2021/08/12 13:16:48;;;;;;;7.87;4.47;;;26.30;88.40;;;;;;5044679;28;20544;-73
2021/08/12 13:21:57;;;;;;;5.17;4.30;;;26.30;90.60;;;;;;5059111;28;20533;-73
2021/08/12 13:24:36;;;;;;;5.87;4.00;;;26.40;91.50;;;;;;5035635;28;20939;-73
2021/08/12 13:27:01;;;;;;;8.70;5.30;;;26.40;92.10;;;;;;5042963;28;20513;-73
2021/08/12 13:29:29;;;;;;;4.47;3.87;;;26.40;92.20;;;;;;5041978;28;20803;-74
2021/08/12 13:32:06;;;;;;;3.53;3.23;;;26.50;92.20;;;;;;5042451;28;20278;-74
2021/08/12 13:34:33;;;;;;;4.50;3.80;;;26.40;92.50;;;;;;5047080;28;20434;-73
2021/08/12 13:36:58;;;;;;;5.70;4.60;;;26.40;92.20;;;;;;5045598;28;20430;-73
2021/08/12 13:39:24;;;;;;;7.50;5.00;;;26.40;92.90;;;;;;5040105;28;21084;-73
2021/08/12 13:41:56;;;;;;;6.67;4.63;;;26.30;91.40;;;;;;5042014;28;20303;-73
2021/08/12 13:44:24;;;;;;;7.43;4.60;;;26.20;92.50;;;;;;5042397;28;20176;-73
2021/08/12 13:46:50;;;;;;;5.17;4.67;;;26.00;90.90;;;;;;5028398;28;20562;-73
2021/08/12 13:49:15;;;;;;;6.53;4.50;;;25.90;91.80;;;;;;5029405;28;20465;-73
2021/08/12 13:51:41;;;;;;;5.27;4.33;;;25.80;91.10;;;;;;5028558;28;20395;-73
2021/08/12 13:54:07;;;;;;;5.83;5.20;;;25.60;92.80;;;;;;5029272;28;20176;-73
2021/08/12 13:56:33;;;;;;;7.00;4.30;;;25.50;89.80;;;;;;5029365;28;20162;-73
2021/08/12 13:58:58;;;;;;;5.23;4.23;;;25.30;89.10;;;;;;5029996;28;20196;-73
2021/08/12 14:01:24;;;;;;;5.57;5.07;;;25.20;88.70;;;;;;5029985;28;20200;-73
2021/08/12 14:03:50;;;;;;;6.70;4.07;;;25.10;90.30;;;;;;5029719;28;20169;-73
2021/08/12 14:06:15;;;;;;;7.27;4.03;;;25.00;92.40;;;;;;5029395;28;20619;-73
2021/08/12 14:08:43;;;;;;;5.20;4.47;;;24.80;94.20;;;;;;5029195;28;20165;-73
2021/08/12 14:11:09;;;;;;;3.90;3.50;;;24.70;90.70;;;;;;5029352;28;20193;-73
2021/08/12 14:13:35;;;;;;;5.63;4.20;;;24.60;90.20;;;;;;5029732;28;20419;-73
2021/08/12 14:16:00;;;;;;;8.17;6.13;;;24.50;93.60;;;;;;5029341;28;20407;-73
2021/08/12 14:18:26;;;;;;;6.30;5.00;;;24.40;95.30;;;;;;5030252;28;20246;-73
2021/08/12 14:20:52;;;;;;;6.27;4.80;;;24.30;95.00;;;;;;5047905;28;20216;-73
2021/08/12 14:23:17;;;;;;;5.20;4.37;;;24.20;95.10;;;;;;5048805;28;20515;-73
2021/08/12 14:25:43;;;;;;;5.27;4.77;;;24.10;95.10;;;;;;5048862;28;20161;-73
2021/08/12 14:28:08;;;;;;;6.23;5.33;;;24.00;95.80;;;;;;5049185;28;20165;-73
2021/08/12 14:30:34;;;;;;;7.47;5.80;;;24.00;94.30;;;;;;5048885;28;20180;-73
2021/08/12 14:33:00;;;;;;;5.97;4.87;;;23.90;93.50;;;;;;5037161;28;20639;-73
2021/08/12 14:35:25;;;;;;;9.53;5.10;;;23.80;94.80;;;;;;5032842;28;20271;-73
2021/08/12 14:37:51;;;;;;;6.23;4.80;;;23.80;94.70;;;;;;5016101;28;20317;-73
2021/08/12 14:40:18;;;;;;;9.80;5.80;;;23.70;96.90;;;;;;5019673;28;20193;-73
2021/08/12 14:42:44;;;;;;;4.30;3.90;;;23.60;93.40;;;;;;5035900;28;20149;-73
2021/08/12 14:45:10;;;;;;;6.97;5.30;;;23.60;94.70;;;;;;5035527;28;20392;-73
2021/08/12 14:47:35;;;;;;;9.00;7.03;;;23.60;97.90;;;;;;5035121;28;20153;-73
2021/08/12 14:50:01;;;;;;;7.90;5.10;;;23.50;99.90;;;;;;5035118;28;20402;-73
2021/08/12 14:52:27;;;;;;;5.37;4.33;;;23.40;99.90;;;;;;5034254;28;20193;-73
2021/08/12 14:54:52;;;;;;;9.60;6.47;;;23.30;99.90;;;;;;5034243;28;20234;-73
2021/08/12 14:57:18;;;;;;;7.57;5.47;;;23.30;99.90;;;;;;5035444;28;20222;-73
2021/08/12 14:59:43;;;;;;;8.80;5.60;;;23.20;99.90;;;;;;5034865;28;20561;-73
2021/08/12 15:02:09;;;;;;;10.23;6.63;;;23.10;99.90;;;;;;5034586;28;20168;-73
2021/08/12 15:04:35;;;;;;;8.90;6.33;;;23.00;99.90;;;;;;5034840;28;20164;-73
2021/08/12 15:07:04;;;;;;;9.90;6.80;;;23.00;99.90;;;;;;5034837;28;20561;-73
2021/08/12 15:09:30;;;;;;;6.83;5.77;;;23.00;99.90;;;;;;5034347;28;20180;-73
2021/08/12 15:11:55;;;;;;;8.13;5.50;;;23.00;99.90;;;;;;5034789;28;20756;-73
2021/08/12 15:14:21;;;;;;;8.13;5.67;;;22.90;99.90;;;;;;5034523;28;20181;-73
2021/08/12 15:16:46;;;;;;;6.03;4.50;;;22.80;99.90;;;;;;5034365;28;20181;-73
2021/08/12 15:19:12;;;;;;;7.50;5.20;;;22.90;98.00;;;;;;5032963;28;20162;-73
2021/08/12 15:21:38;;;;;;;6.23;5.43;;;22.90;99.90;;;;;;5032767;28;20276;-73
2021/08/12 15:24:03;;;;;;;6.53;5.83;;;22.90;99.90;;;;;;5034277;28;20157;-73
2021/08/12 15:26:29;;;;;;;5.90;4.80;;;22.90;99.90;;;;;;5031285;28;20192;-73
2021/08/12 15:28:54;;;;;;;5.60;5.00;;;22.90;99.90;;;;;;5014522;28;20181;-73
2021/08/12 15:31:20;;;;;;;9.10;4.80;;;22.90;99.90;;;;;;5013556;28;20165;-73
2021/08/12 15:33:45;;;;;;;7.97;6.60;;;22.90;99.90;;;;;;5014138;28;20249;-73
2021/08/12 15:36:11;;;;;;;9.23;6.30;;;22.90;99.90;;;;;;5014421;28;20594;-73
2021/08/12 15:38:37;;;;;;;7.27;5.87;;;23.00;99.90;;;;;;5015101;28;20194;-73
2021/08/12 15:41:03;;;;;;;8.00;5.90;;;23.10;99.90;;;;;;5014499;28;20189;-73
2021/08/12 15:43:29;;;;;;;5.30;4.30;;;23.20;99.90;;;;;;5026396;28;20408;-73
2021/08/12 15:45:55;;;;;;;8.50;6.00;;;23.30;99.90;;;;;;5033234;28;20494;-73
2021/08/12 15:48:20;;;;;;;7.43;5.33;;;23.40;99.90;;;;;;5033967;28;20392;-73
2021/08/12 15:50:46;;;;;;;7.00;6.00;;;23.50;99.90;;;;;;5034927;28;20172;-73
2021/08/12 15:53:12;;;;;;;5.30;4.80;;;23.60;99.90;;;;;;5034384;28;20193;-73
2021/08/12 15:55:37;;;;;;;6.70;5.97;;;23.60;99.90;;;;;;5034022;28;20684;-73
2021/08/12 15:58:05;;;;;;;4.80;4.10;;;23.60;99.90;;;;;;5033772;28;20208;-73
2021/08/12 16:00:31;;;;;;;6.77;4.87;;;23.60;99.90;;;;;;5032655;28;20677;-73
2021/08/12 16:02:57;;;;;;;5.87;4.87;;;23.60;99.90;;;;;;5032831;28;20423;-73
2021/08/12 16:05:24;;;;;;;5.60;4.73;;;23.70;99.90;;;;;;5033892;28;20406;-73
2021/08/12 16:07:50;;;;;;;6.07;4.40;;;23.70;99.90;;;;;;5034065;28;20164;-73
2021/08/12 16:10:16;;;;;;;6.80;5.17;;;23.70;99.90;;;;;;5033822;28;20408;-73
2021/08/12 16:12:41;;;;;;;6.30;4.63;;;23.80;99.90;;;;;;5028121;28;20507;-73
2021/08/12 16:15:07;;;;;;;5.77;4.30;;;23.80;99.90;;;;;;5013635;28;20408;-73
2021/08/12 16:17:33;;;;;;;5.40;4.70;;;23.80;99.90;;;;;;5016869;28;20212;-73
2021/08/12 16:19:58;;;;;;;5.40;4.73;;;23.80;99.90;;;;;;5032600;28;20498;-73
2021/08/12 16:22:24;;;;;;;7.30;4.60;;;23.80;99.90;;;;;;5033653;28;20165;-73
2021/08/12 16:24:50;;;;;;;5.30;4.27;;;23.80;99.90;;;;;;5033601;28;20195;-73
2021/08/12 16:27:16;;;;;;;5.63;4.47;;;23.80;99.90;;;;;;5033220;28;20219;-73
2021/08/12 16:29:42;;;;;;;6.10;4.53;;;23.90;99.90;;;;;;5033139;28;20952;-73
2021/08/12 16:32:08;;;;;;;8.30;5.93;;;23.90;99.90;;;;;;5033300;28;20490;-73
2021/08/12 16:34:34;;;;;;;4.60;4.07;;;23.80;99.90;;;;;;5032118;28;20207;-73
2021/08/12 16:37:00;;;;;;;5.03;4.30;;;23.80;99.90;;;;;;5032273;28;20944;-73
2021/08/12 16:39:26;;;;;;;5.67;4.90;;;23.80;99.90;;;;;;5033268;28;20161;-73
2021/08/12 16:41:51;;;;;;;6.23;4.60;;;23.70;99.90;;;;;;5032912;28;20466;-73
2021/08/12 16:44:17;;;;;;;5.53;4.37;;;23.70;99.90;;;;;;5032852;28;20183;-73
2021/08/12 16:46:43;;;;;;;5.77;4.77;;;23.60;99.90;;;;;;5033079;28;20645;-73
2021/08/12 16:49:08;;;;;;;4.97;4.17;;;23.50;99.90;;;;;;5032940;28;20164;-73
2021/08/12 16:51:34;;;;;;;5.50;4.70;;;23.50;99.90;;;;;;5031868;28;20279;-73
2021/08/12 16:54:00;;;;;;;5.63;4.60;;;23.40;99.90;;;;;;5032206;28;20185;-73
2021/08/12 16:56:25;;;;;;;6.50;5.10;;;23.30;99.90;;;;;;5032543;28;20161;-73
2021/08/12 16:58:51;;;;;;;9.77;5.90;;;23.30;99.90;;;;;;5032614;28;21047;-73
2021/08/12 17:01:20;;;;;;;7.90;6.33;;;23.20;99.90;;;;;;5032515;28;20196;-73
2021/08/12 17:03:47;;;;;;;4.93;4.43;;;23.10;99.90;;;;;;5032690;28;20610;-73
2021/08/12 17:06:12;;;;;;;4.93;4.53;;;23.10;99.90;;;;;;5033012;28;20388;-73
2021/08/12 17:08:38;;;;;;;6.70;5.03;;;23.10;99.90;;;;;;5031803;28;20419;-73
2021/08/12 17:11:03;;;;;;;7.00;5.23;;;23.00;99.90;;;;;;5032024;28;20180;-73
2021/08/12 17:13:29;;;;;;;6.00;5.10;;;23.00;99.90;;;;;;5032657;28;20173;-72
2021/08/12 17:15:55;;;;;;;5.37;4.87;;;23.00;99.90;;;;;;5032502;28;20519;-73
2021/08/12 17:18:20;;;;;;;6.27;5.67;;;23.00;99.90;;;;;;5032487;28;20168;-73
2021/08/12 17:20:46;;;;;;;5.07;4.53;;;23.00;99.90;;;;;;5032772;28;20204;-73
2021/08/12 17:23:11;;;;;;;5.40;4.83;;;22.90;99.90;;;;;;5032654;28;20161;-73
2021/08/12 17:25:37;;;;;;;5.60;4.87;;;22.90;99.90;;;;;;5031813;28;20184;-73
2021/08/12 17:28:04;;;;;;;5.73;4.73;;;22.80;99.90;;;;;;5031599;28;20169;-73
2021/08/12 17:30:30;;;;;;;7.53;6.03;;;22.80;99.90;;;;;;5032494;28;20153;-73
2021/08/12 17:32:56;;;;;;;6.80;5.50;;;22.70;99.90;;;;;;5032371;28;20406;-72
2021/08/12 17:35:22;;;;;;;6.50;4.73;;;22.70;99.90;;;;;;5032537;28;21010;-73
2021/08/12 17:37:48;;;;;;;8.50;4.97;;;22.60;99.90;;;;;;5032418;28;20157;-73
2021/08/12 17:40:14;;;;;;;6.43;5.30;;;22.70;99.90;;;;;;5032171;28;20454;-73
2021/08/12 17:42:41;;;;;;;5.87;5.27;;;22.70;99.90;;;;;;5031548;28;20180;-73
2021/08/12 17:45:07;;;;;;;6.70;5.70;;;22.70;99.90;;;;;;5031315;28;20412;-73
2021/08/12 17:47:32;;;;;;;7.73;5.90;;;22.70;99.90;;;;;;5032141;28;20392;-72
2021/08/12 17:49:58;;;;;;;6.00;5.40;;;22.70;99.90;;;;;;5032649;28;20388;-73
2021/08/12 17:52:23;;;;;;;9.60;7.80;;;22.70;99.90;;;;;;5032643;28;20172;-73
2021/08/12 17:54:49;;;;;;;7.77;4.80;;;22.70;99.90;;;;;;5032519;28;20161;-73
2021/08/12 17:57:14;;;;;;;9.80;6.37;;;22.60;99.90;;;;;;5032484;28;20172;-73
2021/08/12 17:59:40;;;;;;;8.77;5.87;;;22.60;99.90;;;;;;5027682;28;20205;-72
2021/08/12 18:02:06;;;;;;;6.50;5.40;;;22.60;99.90;;;;;;5012967;28;20261;-72
2021/08/12 18:04:31;;;;;;;5.80;4.87;;;22.50;99.90;;;;;;5012588;28;20170;-73
2021/08/12 18:06:58;;;;;;;7.93;6.00;;;22.50;99.90;;;;;;5013323;28;20168;-73
2021/08/12 18:09:24;;;;;;;7.10;5.93;;;22.40;99.90;;;;;;5016075;28;20284;-73
2021/08/12 18:11:49;;;;;;;5.00;4.33;;;22.40;99.90;;;;;;5015976;28;20408;-73
2021/08/12 18:14:15;;;;;;;10.50;6.40;;;22.40;99.90;;;;;;5020579;28;20576;-73
2021/08/12 18:16:40;;;;;;;6.47;5.30;;;22.30;99.90;;;;;;5031043;28;20173;-72
2021/08/12 18:19:06;;;;;;;7.00;5.50;;;22.30;99.90;;;;;;5016981;28;20399;-72
2021/08/12 18:21:32;;;;;;;6.67;5.33;;;22.30;99.90;;;;;;5015687;28;20589;-72
2021/08/12 18:23:57;;;;;;;6.33;4.90;;;22.20;99.90;;;;;;5016058;28;20400;-73
2021/08/12 18:26:24;;;;;;;6.10;4.83;;;22.20;99.90;;;;;;5015870;28;20240;-73
2021/08/12 18:28:50;;;;;;;6.20;4.83;;;22.20;99.90;;;;;;5015748;28;20153;-72
2021/08/12 18:31:16;;;;;;;7.37;5.10;;;22.20;99.90;;;;;;5015715;28;20404;-72
2021/08/12 18:33:42;;;;;;;7.57;5.33;;;22.10;99.90;;;;;;5016729;28;20423;-73
2021/08/12 18:36:08;;;;;;;7.97;5.80;;;22.10;99.90;;;;;;5035035;28;20513;-72
2021/08/12 18:38:36;;;;;;;6.00;4.50;;;22.10;99.90;;;;;;5035350;28;20403;-73
2021/08/12 18:41:02;;;;;;;6.07;4.70;;;22.00;99.90;;;;;;5035324;28;20451;-73
2021/08/12 18:43:28;;;;;;;6.27;5.00;;;22.00;99.90;;;;;;5035294;28;20403;-73
2021/08/12 18:45:54;;;;;;;9.27;5.63;;;22.00;99.90;;;;;;5035146;28;20850;-72
2021/08/12 18:48:19;;;;;;;7.07;4.73;;;21.90;99.90;;;;;;5035412;28;20171;-72
2021/08/12 18:50:45;;;;;;;6.23;5.27;;;21.90;99.90;;;;;;5029877;28;20177;-72
2021/08/12 18:53:11;;;;;;;7.90;5.83;;;21.90;99.90;;;;;;5016148;28;20234;-72
2021/08/12 18:55:36;;;;;;;9.57;5.80;;;21.80;99.90;;;;;;5015597;28;20259;-72
2021/08/12 18:58:02;;;;;;;5.10;4.37;;;21.80;99.90;;;;;;5015055;28;20169;-72
2021/08/12 19:00:27;;;;;;;8.73;5.37;;;21.80;99.90;;;;;;5015053;28;20228;-72
2021/08/12 19:02:53;;;;;;;6.93;5.30;;;21.80;99.90;;;;;;5015645;28;20157;-72
2021/08/12 19:05:19;;;;;;;12.50;6.87;;;21.70;99.90;;;;;;5015028;28;20522;-72
2021/08/12 19:07:44;;;;;;;7.30;6.10;;;21.70;99.90;;;;;;5015755;28;20173;-72
2021/08/12 19:10:10;;;;;;;7.03;6.33;;;21.60;99.90;;;;;;5015352;28;20676;-73
2021/08/12 19:12:35;;;;;;;8.77;5.80;;;21.60;99.90;;;;;;5014885;28;20754;-72
2021/08/12 19:15:01;;;;;;;10.20;5.83;;;21.50;99.90;;;;;;5025559;28;20180;-72
2021/08/12 19:17:26;;;;;;;7.70;6.13;;;21.50;99.90;;;;;;5034823;28;20161;-72
2021/08/12 19:19:52;;;;;;;8.40;5.33;;;21.50;99.90;;;;;;5034375;28;20181;-72
2021/08/12 19:22:17;;;;;;;10.50;6.90;;;21.50;99.90;;;;;;5034569;28;20207;-73
2021/08/12 19:24:43;;;;;;;7.03;6.00;;;21.50;99.90;;;;;;5029363;28;20189;-73
2021/08/12 19:27:09;;;;;;;6.50;5.80;;;21.50;99.90;;;;;;5015117;28;20263;-72
2021/08/12 19:29:34;;;;;;;6.37;5.00;;;21.50;99.90;;;;;;5014550;28;20613;-72
2021/08/12 19:32:00;;;;;;;7.53;6.13;;;21.40;99.90;;;;;;5014971;28;20208;-72
2021/08/12 19:34:25;;;;;;;10.70;6.93;;;21.40;99.90;;;;;;5014719;28;20611;-72
2021/08/12 19:36:51;;;;;;;8.20;6.27;;;21.40;99.90;;;;;;5014468;28;20158;-72
2021/08/12 19:39:16;;;;;;;7.03;5.60;;;21.40;99.90;;;;;;5014724;28;20178;-72
2021/08/12 19:41:42;;;;;;;7.47;5.80;;;21.30;99.90;;;;;;5014825;28;20204;-72
2021/08/12 19:44:07;;;;;;;7.80;6.57;;;21.30;99.90;;;;;;5015235;28;20189;-72
2021/08/12 19:46:33;;;;;;;6.50;5.80;;;21.30;99.90;;;;;;5014763;28;20168;-72
2021/08/12 19:48:59;;;;;;;8.37;5.93;;;21.30;99.90;;;;;;5014350;28;20164;-72
2021/08/12 19:51:24;;;;;;;6.37;5.60;;;21.30;99.90;;;;;;5014330;28;20150;-72
2021/08/12 19:53:51;;;;;;;8.60;6.20;;;21.30;99.90;;;;;;5014165;28;20506;-72
2021/08/12 19:56:17;;;;;;;8.83;6.53;;;21.30;99.90;;;;;;5014130;28;20166;-72
2021/08/12 19:58:43;;;;;;;9.90;7.60;;;21.20;99.90;;;;;;5014860;28;20428;-72
2021/08/12 20:01:11;;;;;;;9.40;7.17;;;21.20;99.90;;;;;;5033228;28;20446;-72
2021/08/12 20:03:37;;;;;;;8.83;6.90;;;21.20;99.90;;;;;;5033516;28;20378;-72
2021/08/12 20:06:02;;;;;;;8.70;7.40;;;21.20;99.90;;;;;;5033458;28;20396;-72
2021/08/12 20:08:28;;;;;;;9.67;7.03;;;21.20;99.90;;;;;;5033257;28;20259;-72
2021/08/12 20:10:53;;;;;;;11.43;8.57;;;21.20;99.90;;;;;;5033210;28;20165;-72
2021/08/12 20:13:19;;;;;;;8.50;5.83;;;21.20;99.90;;;;;;5033491;28;20164;-72
2021/08/12 20:15:45;;;;;;;9.17;6.90;;;21.10;99.90;;;;;;5028467;28;20177;-72
2021/08/12 20:18:11;;;;;;;10.70;6.77;;;21.10;99.90;;;;;;5014111;28;20675;-72
2021/08/12 20:20:37;;;;;;;7.03;6.33;;;21.10;99.90;;;;;;5013247;28;20220;-72
2021/08/12 20:23:03;;;;;;;8.57;7.67;;;21.00;99.90;;;;;;5013338;28;20874;-72
2021/08/12 20:25:28;;;;;;;9.13;7.60;;;21.00;99.90;;;;;;5013597;28;20197;-72
2021/08/12 20:27:54;;;;;;;9.37;7.10;;;21.00;99.90;;;;;;5013236;28;20173;-72
2021/08/12 20:30:20;;;;;;;15.73;7.90;;;21.00;99.90;;;;;;5013266;28;20168;-72
2021/08/12 20:32:45;;;;;;;9.97;7.67;;;20.90;99.90;;;;;;5014005;28;20188;-72
2021/08/12 20:35:11;;;;;;;7.30;6.60;;;20.90;99.90;;;;;;5013298;28;20228;-72
2021/08/12 20:37:37;;;;;;;9.13;7.13;;;20.90;99.90;;;;;;5012982;28;20208;-72
2021/08/12 20:40:03;;;;;;;9.07;6.70;;;20.90;99.90;;;;;;5013053;28;20693;-72
2021/08/12 20:42:29;;;;;;;8.03;6.37;;;20.80;99.90;;;;;;5013146;28;20154;-72
2021/08/12 20:44:55;;;;;;;11.27;7.50;;;20.80;99.90;;;;;;5013199;28;20487;-72
2021/08/12 20:47:20;;;;;;;7.70;6.10;;;20.80;99.90;;;;;;5013012;28;20158;-72
2021/08/12 20:49:46;;;;;;;7.00;6.10;;;20.80;99.90;;;;;;5013458;28;20192;-72
2021/08/12 20:52:12;;;;;;;11.10;7.37;;;20.80;99.90;;;;;;5032104;28;20228;-72
2021/08/12 20:54:37;;;;;;;7.70;6.23;;;20.70;99.90;;;;;;5032614;28;20262;-72
2021/08/12 20:57:03;;;;;;;8.00;6.10;;;20.70;99.90;;;;;;5032599;28;20232;-72
2021/08/12 20:59:28;;;;;;;9.50;7.23;;;20.70;99.90;;;;;;5032547;28;20199;-72
2021/08/12 21:01:54;;;;;;;8.80;6.73;;;20.70;99.90;;;;;;5032420;28;20543;-72
2021/08/12 21:04:19;;;;;;;8.50;6.87;;;20.60;99.90;;;;;;5032449;28;20165;-72
2021/08/12 21:06:45;;;;;;;9.13;7.50;;;20.60;99.90;;;;;;5031427;28;20689;-72
2021/08/12 21:09:11;;;;;;;8.77;6.63;;;20.60;99.90;;;;;;5032127;28;20230;-72
2021/08/12 21:11:38;;;;;;;7.47;6.67;;;20.60;99.90;;;;;;5032502;28;20168;-72
2021/08/12 21:14:04;;;;;;;8.77;7.13;;;20.50;99.90;;;;;;5032240;28;20208;-72
2021/08/12 21:16:29;;;;;;;10.47;7.77;;;20.50;99.90;;;;;;5032341;28;20446;-72
2021/08/12 21:18:55;;;;;;;8.43;7.27;;;20.50;99.90;;;;;;5032338;28;20160;-72
2021/08/12 21:21:21;;;;;;;8.53;6.80;;;20.50;99.90;;;;;;5032074;28;20727;-72
2021/08/12 21:23:47;;;;;;;8.60;7.50;;;20.40;99.90;;;;;;5031282;28;20267;-72
2021/08/12 21:26:13;;;;;;;8.10;6.73;;;20.40;99.90;;;;;;5032027;28;20453;-72
2021/08/12 21:28:39;;;;;;;9.43;8.00;;;20.30;99.90;;;;;;5032631;28;20192;-72
2021/08/12 21:31:04;;;;;;;9.30;7.70;;;20.30;99.90;;;;;;5032262;28;20427;-72
2021/08/12 21:33:30;;;;;;;10.53;6.90;;;20.30;99.90;;;;;;5032535;28;20521;-72
2021/08/12 21:35:56;;;;;;;9.27;7.20;;;20.30;99.90;;;;;;5032278;28;20607;-72
2021/08/12 21:38:21;;;;;;;9.83;7.90;;;20.20;99.90;;;;;;5032294;28;20165;-72
2021/08/12 21:40:47;;;;;;;9.27;7.00;;;20.20;99.90;;;;;;5031142;28;20192;-72
2021/08/12 21:43:12;;;;;;;13.33;7.23;;;20.20;99.90;;;;;;5035006;28;20212;-72
2021/08/12 21:45:38;;;;;;;9.20;7.77;;;20.10;99.90;;;;;;5036193;28;20295;-72
2021/08/12 21:48:04;;;;;;;9.07;7.27;;;20.10;99.90;;;;;;5036097;28;20614;-72
2021/08/12 21:50:30;;;;;;;10.90;7.37;;;20.00;99.90;;;;;;5036036;28;20519;-72
2021/08/12 21:52:55;;;;;;;7.67;6.20;;;20.00;99.90;;;;;;5036106;28;20391;-72
2021/08/12 21:55:21;;;;;;;9.70;7.20;;;19.90;99.90;;;;;;5036114;28;20162;-72
2021/08/12 21:57:46;;;;;;;7.60;6.30;;;19.90;99.90;;;;;;5034787;28;20666;-72
2021/08/12 22:00:15;;;;;;;7.87;6.13;;;19.90;99.90;;;;;;5035317;28;20343;-72
2021/08/12 22:02:43;;;;;;;8.00;6.70;;;19.80;99.90;;;;;;5035808;28;20252;-72
2021/08/12 22:05:09;;;;;;;9.00;7.13;;;19.70;99.90;;;;;;5035792;28;20792;-72
2021/08/12 22:07:37;;;;;;;9.37;6.87;;;19.70;99.90;;;;;;5035776;28;20402;-72
2021/08/12 22:10:05;;;;;;;7.77;6.97;;;19.70;99.90;;;;;;5035795;28;20387;-72
2021/08/12 22:12:31;;;;;;;8.90;7.50;;;19.60;99.90;;;;;;5035676;28;20391;-72
2021/08/12 22:14:56;;;;;;;10.80;6.60;;;19.60;99.90;;;;;;5029301;28;20777;-72
2021/08/12 22:17:22;;;;;;;8.93;6.97;;;19.60;99.90;;;;;;5015898;28;20597;-72
2021/08/12 22:19:47;;;;;;;10.63;8.03;;;19.60;99.90;;;;;;5015559;28;20268;-72
2021/08/12 22:22:13;;;;;;;9.17;7.37;;;19.50;99.90;;;;;;5016187;28;20646;-72
2021/08/12 22:24:39;;;;;;;8.50;7.10;;;19.50;99.90;;;;;;5015678;28;20169;-72
2021/08/12 22:27:04;;;;;;;9.93;7.43;;;19.50;99.90;;;;;;5015680;28;20153;-72
2021/08/12 22:29:30;;;;;;;7.57;6.73;;;19.40;99.90;;;;;;5015639;28;20533;-72
2021/08/12 22:31:56;;;;;;;9.97;7.97;;;19.40;99.90;;;;;;5016627;28;20427;-72
2021/08/12 22:34:21;;;;;;;7.77;6.73;;;19.40;99.90;;;;;;5015385;28;20173;-72
2021/08/12 22:36:47;;;;;;;9.33;6.83;;;19.30;99.90;;;;;;5015520;28;20526;-72
2021/08/12 22:39:12;;;;;;;9.20;6.43;;;19.30;99.90;;;;;;5015578;28;20170;-72
2021/08/12 22:41:38;;;;;;;9.23;7.70;;;19.30;99.90;;;;;;5015259;28;20197;-72
2021/08/12 22:44:03;;;;;;;11.47;8.27;;;19.20;99.90;;;;;;5015365;28;20161;-72
2021/08/12 22:46:29;;;;;;;8.90;8.00;;;19.20;99.90;;;;;;5015252;28;20158;-72
2021/08/12 22:48:55;;;;;;;10.77;6.87;;;19.10;99.90;;;;;;5016367;28;20184;-72
2021/08/12 22:51:20;;;;;;;9.53;8.40;;;19.10;99.90;;;;;;5015171;28;20168;-72
2021/08/12 22:53:49;;;;;;;8.83;7.17;;;19.10;99.90;;;;;;5014920;28;20729;-72
2021/08/12 22:56:14;;;;;;;10.57;8.30;;;19.10;99.90;;;;;;5015174;28;20165;-72
2021/08/12 22:58:40;;;;;;;11.70;7.47;;;19.10;99.90;;;;;;5014938;28;20825;-72
2021/08/12 23:01:06;;;;;;;7.20;6.50;;;19.00;99.90;;;;;;5014973;28;20188;-72
2021/08/12 23:03:31;;;;;;;9.70;7.20;;;19.00;99.90;;;;;;5014993;28;20166;-72